Time;durP1;ratioP1;P1;durP2;ratioP2;P2;SDS_P1;SDS_P2;PMS_P1;PMS_P2;Temp;Humidity;BMP_temperature;BMP_pressure;BME280_temperature;BME280_humidity;BME280_pressure;Samples;Min_cycle;Max_cycle;Signal;HPM_P1;HPM_P2
2023/10/30 00:01:45;;;;;;;3.90;1.42;;;12.20;99.90;;;;;;5033669;28;20293;-56
2023/10/30 00:04:13;;;;;;;5.20;1.60;;;12.20;99.90;;;;;;5033321;28;20694;-55
2023/10/30 00:06:41;;;;;;;3.42;1.75;;;12.20;99.90;;;;;;5032685;28;20234;-56
2023/10/30 00:09:09;;;;;;;7.20;1.73;;;12.20;99.90;;;;;;5032926;28;20325;-55
2023/10/30 00:11:37;;;;;;;8.05;1.48;;;12.20;99.90;;;;;;5032180;28;20206;-57
2023/10/30 00:14:05;;;;;;;4.80;1.65;;;12.20;99.90;;;;;;5029547;28;20234;-57
2023/10/30 00:16:34;;;;;;;3.55;2.70;;;12.20;99.90;;;;;;5033175;28;20721;-57
2023/10/30 00:19:04;;;;;;;5.43;2.33;;;12.20;99.90;;;;;;5031632;28;20233;-57
2023/10/30 00:21:32;;;;;;;3.90;2.58;;;12.20;99.90;;;;;;5033227;28;20205;-57
2023/10/30 00:24:01;;;;;;;8.10;2.83;;;12.20;99.90;;;;;;5032368;28;20198;-57
2023/10/30 00:26:29;;;;;;;3.00;2.80;;;12.20;99.90;;;;;;5033143;28;20199;-56
2023/10/30 00:28:58;;;;;;;7.55;3.53;;;12.20;99.90;;;;;;5057041;23;20230;-61
2023/10/30 00:31:26;;;;;;;8.32;3.83;;;12.20;99.90;;;;;;5051604;28;20287;-61
2023/10/30 00:33:55;;;;;;;7.00;3.65;;;12.20;99.90;;;;;;5050780;28;20690;-60
2023/10/30 00:36:23;;;;;;;4.88;3.28;;;12.20;99.90;;;;;;5051799;28;20226;-60
2023/10/30 00:38:51;;;;;;;7.07;3.35;;;12.20;99.90;;;;;;5044508;28;20222;-60
2023/10/30 00:41:19;;;;;;;5.93;3.88;;;12.20;99.90;;;;;;5036260;28;20247;-60
2023/10/30 00:43:47;;;;;;;6.55;4.40;;;12.20;99.90;;;;;;5045727;28;20286;-60
2023/10/30 00:46:15;;;;;;;4.70;4.30;;;12.20;99.90;;;;;;5032471;28;20301;-60
2023/10/30 00:48:42;;;;;;;8.35;4.50;;;12.20;99.90;;;;;;5047339;28;20248;-61
2023/10/30 00:51:12;;;;;;;9.25;4.45;;;12.20;99.90;;;;;;5049694;28;20292;-60
2023/10/30 00:53:40;;;;;;;5.22;4.15;;;12.20;99.90;;;;;;5052561;28;20202;-60
2023/10/30 00:56:07;;;;;;;6.63;4.47;;;12.20;99.90;;;;;;5049861;28;20222;-60
2023/10/30 00:58:35;;;;;;;5.85;4.28;;;12.20;99.90;;;;;;5040498;28;20249;-60
2023/10/30 01:01:03;;;;;;;7.25;4.13;;;12.20;99.90;;;;;;5032428;28;20245;-61
2023/10/30 01:03:31;;;;;;;6.75;3.70;;;12.30;99.90;;;;;;5041022;28;20252;-61
2023/10/30 01:06:00;;;;;;;6.40;3.28;;;12.30;99.90;;;;;;5048766;28;20215;-61
2023/10/30 01:08:30;;;;;;;9.80;3.55;;;12.30;99.90;;;;;;5045897;28;20738;-61
2023/10/30 01:10:57;;;;;;;5.90;2.80;;;12.30;99.90;;;;;;5046244;28;20297;-61
2023/10/30 01:13:26;;;;;;;6.80;2.97;;;12.30;99.90;;;;;;5051566;28;20205;-61
2023/10/30 01:15:54;;;;;;;3.97;2.05;;;12.30;99.90;;;;;;5051894;28;20229;-61
2023/10/30 01:18:22;;;;;;;6.63;2.10;;;12.30;99.90;;;;;;5050060;28;20679;-61
2023/10/30 01:20:49;;;;;;;12.45;2.33;;;12.30;99.90;;;;;;5050736;28;20229;-61
2023/10/30 01:23:17;;;;;;;4.28;1.75;;;12.30;99.90;;;;;;5051660;28;20305;-61
2023/10/30 01:25:47;;;;;;;3.83;1.40;;;12.30;99.90;;;;;;5051805;28;20214;-61
2023/10/30 01:28:15;;;;;;;5.25;1.60;;;12.30;99.90;;;;;;5051678;28;20249;-61
2023/10/30 01:30:43;;;;;;;5.68;1.58;;;12.20;99.90;;;;;;5049430;28;20261;-61
2023/10/30 01:33:11;;;;;;;4.40;1.10;;;12.30;99.90;;;;;;5050592;28;20675;-61
2023/10/30 01:35:39;;;;;;;3.22;1.27;;;12.30;99.90;;;;;;5050219;28;20590;-61
2023/10/30 01:38:07;;;;;;;2.28;1.23;;;12.30;99.90;;;;;;5050760;28;20257;-61
2023/10/30 01:40:35;;;;;;;5.95;1.77;;;12.30;99.90;;;;;;5050442;28;20260;-61
2023/10/30 01:43:09;;;;;;;3.05;1.30;;;12.30;99.90;;;;;;5049792;28;20298;-61
2023/10/30 01:45:37;;;;;;;2.47;1.33;;;12.30;99.90;;;;;;5046101;28;20198;-61
2023/10/30 01:48:05;;;;;;;4.57;1.58;;;12.30;99.90;;;;;;5039871;28;20209;-61
2023/10/30 01:50:33;;;;;;;1.70;1.30;;;12.30;99.90;;;;;;5043672;28;20226;-61
2023/10/30 01:53:01;;;;;;;6.05;2.00;;;12.30;99.90;;;;;;5043544;28;20206;-61
2023/10/30 01:55:29;;;;;;;5.22;1.60;;;12.30;99.90;;;;;;5042998;28;20287;-61
2023/10/30 01:57:57;;;;;;;4.47;1.38;;;12.30;99.90;;;;;;5051236;28;20773;-61
2023/10/30 02:00:28;;;;;;;6.60;1.98;;;12.30;99.90;;;;;;5034807;28;20257;-61
2023/10/30 02:02:56;;;;;;;7.13;1.90;;;12.30;99.90;;;;;;5035443;28;20631;-60
2023/10/30 02:05:24;;;;;;;3.17;1.23;;;12.30;99.90;;;;;;5042343;28;20202;-61
2023/10/30 02:07:52;;;;;;;4.90;1.08;;;12.30;99.90;;;;;;5043393;28;20255;-61
2023/10/30 02:10:20;;;;;;;4.13;1.30;;;12.30;99.90;;;;;;5051025;28;20264;-61
2023/10/30 02:12:49;;;;;;;5.00;1.30;;;12.30;99.90;;;;;;5051104;28;20633;-62
2023/10/30 02:15:17;;;;;;;8.13;1.13;;;12.30;99.90;;;;;;5050254;28;20297;-61
2023/10/30 02:17:47;;;;;;;3.70;1.05;;;12.30;99.90;;;;;;5049602;28;20725;-61
2023/10/30 02:20:15;;;;;;;2.90;1.08;;;12.30;99.90;;;;;;5050371;28;20405;-61
2023/10/30 02:22:42;;;;;;;1.92;1.00;;;12.30;99.90;;;;;;5050099;28;20639;-61
2023/10/30 02:25:11;;;;;;;4.18;1.17;;;12.30;99.90;;;;;;5050395;28;20260;-61
2023/10/30 02:27:41;;;;;;;6.00;1.42;;;12.20;99.90;;;;;;5048285;28;20290;-61
2023/10/30 02:30:11;;;;;;;3.83;1.08;;;12.30;99.90;;;;;;5049417;28;20265;-61
2023/10/30 02:32:42;;;;;;;4.85;1.25;;;12.30;99.90;;;;;;5048297;28;20202;-61
2023/10/30 02:35:11;;;;;;;4.30;1.40;;;12.30;99.90;;;;;;5049574;28;20612;-61
2023/10/30 02:37:40;;;;;;;2.60;1.10;;;12.30;99.90;;;;;;5050633;28;20258;-60
2023/10/30 02:40:08;;;;;;;2.67;1.20;;;12.30;99.90;;;;;;5049532;28;20714;-60
2023/10/30 02:42:36;;;;;;;4.72;1.05;;;12.30;99.90;;;;;;5049650;28;20241;-60
2023/10/30 02:45:07;;;;;;;1.75;0.80;;;12.30;99.90;;;;;;5049624;28;20588;-60
2023/10/30 02:47:35;;;;;;;4.72;1.08;;;12.30;99.90;;;;;;5050584;28;20198;-61
2023/10/30 02:50:03;;;;;;;5.25;1.30;;;12.30;99.90;;;;;;5049414;28;20701;-61
2023/10/30 02:52:31;;;;;;;4.20;1.15;;;12.30;99.90;;;;;;5050417;28;20293;-61
2023/10/30 02:54:59;;;;;;;3.90;1.17;;;12.30;99.90;;;;;;5050283;28;20297;-60
2023/10/30 02:57:27;;;;;;;3.72;1.20;;;12.30;99.90;;;;;;5050383;28;20253;-60
2023/10/30 02:59:54;;;;;;;4.32;1.50;;;12.30;99.90;;;;;;5049775;28;20778;-61
2023/10/30 03:02:24;;;;;;;2.25;1.20;;;12.30;99.90;;;;;;5050355;28;20216;-61
2023/10/30 03:04:52;;;;;;;5.07;1.35;;;12.20;99.90;;;;;;5049506;28;20645;-61
2023/10/30 03:07:20;;;;;;;1.90;1.67;;;12.30;99.90;;;;;;5050313;28;20206;-61
2023/10/30 03:09:48;;;;;;;5.18;1.92;;;12.20;99.90;;;;;;5049271;28;20253;-61
2023/10/30 03:12:16;;;;;;;3.38;1.67;;;12.20;99.90;;;;;;5050478;28;20210;-61
2023/10/30 03:14:44;;;;;;;4.18;1.58;;;12.30;99.90;;;;;;5049839;28;20206;-61
2023/10/30 03:17:12;;;;;;;5.10;2.25;;;12.30;99.90;;;;;;5049815;28;20599;-61
2023/10/30 03:19:41;;;;;;;5.63;1.88;;;12.30;99.90;;;;;;5048482;28;20312;-61
2023/10/30 03:22:09;;;;;;;4.10;1.80;;;12.20;99.90;;;;;;5050725;28;20229;-61
2023/10/30 03:24:36;;;;;;;4.63;2.00;;;12.20;99.90;;;;;;5050759;28;20256;-61
2023/10/30 03:27:05;;;;;;;4.28;1.48;;;12.30;99.90;;;;;;5051519;28;20249;-61
2023/10/30 03:29:35;;;;;;;7.57;2.20;;;12.30;99.90;;;;;;5049220;28;20277;-60
2023/10/30 03:32:03;;;;;;;5.20;1.70;;;12.30;99.90;;;;;;5044995;28;20263;-61
2023/10/30 03:34:31;;;;;;;5.70;1.50;;;12.20;99.90;;;;;;5046042;28;20297;-61
2023/10/30 03:37:00;;;;;;;7.55;1.50;;;12.20;99.90;;;;;;5053174;28;20740;-60
2023/10/30 03:39:28;;;;;;;5.03;1.30;;;12.20;99.90;;;;;;5053380;28;20313;-59
2023/10/30 03:41:56;;;;;;;5.07;1.20;;;12.20;99.90;;;;;;5052246;28;20202;-60
2023/10/30 03:44:26;;;;;;;7.55;1.30;;;12.20;99.90;;;;;;5052666;28;20210;-61
2023/10/30 03:46:54;;;;;;;4.07;1.27;;;12.20;99.90;;;;;;5053068;28;20280;-60
2023/10/30 03:49:21;;;;;;;4.50;1.27;;;12.30;99.90;;;;;;5037234;28;20226;-60
2023/10/30 03:51:49;;;;;;;5.13;1.40;;;12.30;99.90;;;;;;5045624;28;20289;-60
2023/10/30 03:54:18;;;;;;;0.98;0.88;;;12.30;99.90;;;;;;5035397;28;20635;-61
2023/10/30 03:56:46;;;;;;;3.60;1.40;;;12.20;99.90;;;;;;5037466;28;20206;-60
2023/10/30 03:59:15;;;;;;;3.88;1.10;;;12.20;99.90;;;;;;5035359;28;20664;-60
2023/10/30 04:01:43;;;;;;;3.65;1.30;;;12.20;99.90;;;;;;5036829;28;20206;-60
2023/10/30 04:04:11;;;;;;;5.65;1.38;;;12.20;99.90;;;;;;5045173;28;20224;-61
2023/10/30 04:06:39;;;;;;;5.68;1.13;;;12.20;99.90;;;;;;5040669;28;20209;-60
2023/10/30 04:09:07;;;;;;;3.40;0.82;;;12.20;99.90;;;;;;5033250;28;20222;-60
2023/10/30 04:11:36;;;;;;;6.82;1.23;;;12.20;99.90;;;;;;5033293;28;20207;-60
2023/10/30 04:14:04;;;;;;;4.65;0.95;;;12.20;99.90;;;;;;5040047;28;20214;-61
2023/10/30 04:16:32;;;;;;;5.32;1.33;;;12.20;99.90;;;;;;5051935;28;20229;-60
2023/10/30 04:19:00;;;;;;;6.45;0.80;;;12.20;99.90;;;;;;5051746;28;20647;-60
2023/10/30 04:21:28;;;;;;;5.03;1.05;;;12.20;99.90;;;;;;5052155;28;20300;-61
2023/10/30 04:23:57;;;;;;;4.80;1.10;;;12.20;99.90;;;;;;5052262;28;20198;-60
2023/10/30 04:26:25;;;;;;;3.40;0.95;;;12.20;99.90;;;;;;5052380;28;20217;-60
2023/10/30 04:28:54;;;;;;;5.68;0.90;;;12.20;99.90;;;;;;5052626;28;20221;-60
2023/10/30 04:31:22;;;;;;;2.42;0.80;;;12.20;99.90;;;;;;5050820;28;20267;-60
2023/10/30 04:33:50;;;;;;;5.60;1.15;;;12.20;99.90;;;;;;5051883;28;20206;-60
2023/10/30 04:36:18;;;;;;;5.88;1.08;;;12.20;99.90;;;;;;5050975;28;20263;-61
2023/10/30 04:38:46;;;;;;;3.88;0.90;;;12.20;99.90;;;;;;5050473;28;20224;-61
2023/10/30 04:41:14;;;;;;;3.92;0.95;;;12.20;99.90;;;;;;5051364;28;20730;-60
2023/10/30 04:43:42;;;;;;;6.85;0.90;;;12.20;99.90;;;;;;5051484;28;20233;-61
2023/10/30 04:46:11;;;;;;;2.67;0.73;;;12.10;99.90;;;;;;5050725;28;20293;-61
2023/10/30 04:48:39;;;;;;;4.40;1.08;;;12.20;99.90;;;;;;5051995;28;20202;-61
2023/10/30 04:51:07;;;;;;;3.10;1.08;;;12.10;99.90;;;;;;5051162;28;20217;-60
2023/10/30 04:53:35;;;;;;;5.70;1.00;;;12.10;99.90;;;;;;5052132;28;20237;-61
2023/10/30 04:56:04;;;;;;;4.38;0.90;;;12.10;99.90;;;;;;5050552;28;20272;-61
2023/10/30 04:58:32;;;;;;;3.67;1.10;;;12.10;99.90;;;;;;5052558;28;20639;-61
2023/10/30 05:01:00;;;;;;;8.93;1.77;;;12.10;99.90;;;;;;5050913;28;20368;-61
2023/10/30 05:03:29;;;;;;;7.22;0.90;;;12.10;99.90;;;;;;5046165;28;20641;-61
2023/10/30 05:05:57;;;;;;;3.80;1.05;;;12.10;99.90;;;;;;5045937;28;20255;-61
2023/10/30 05:08:25;;;;;;;6.25;1.15;;;12.10;99.90;;;;;;5051879;28;20293;-61
2023/10/30 05:10:53;;;;;;;5.82;0.95;;;12.10;99.90;;;;;;5050794;28;20257;-61
2023/10/30 05:13:21;;;;;;;2.58;0.93;;;12.10;99.90;;;;;;5052211;28;20240;-61
2023/10/30 05:15:49;;;;;;;3.97;0.77;;;12.10;99.90;;;;;;5049898;28;20208;-61
2023/10/30 05:18:21;;;;;;;4.88;0.90;;;12.10;99.90;;;;;;5050794;28;20226;-61
2023/10/30 05:20:50;;;;;;;5.75;1.00;;;12.10;99.90;;;;;;5046354;28;21046;-61
2023/10/30 05:23:18;;;;;;;3.67;0.88;;;12.00;99.90;;;;;;5046957;28;20197;-61
2023/10/30 05:25:46;;;;;;;3.20;1.08;;;12.00;99.90;;;;;;5050808;28;20261;-60
2023/10/30 05:28:14;;;;;;;8.95;1.20;;;12.00;99.90;;;;;;5050710;28;20585;-61
2023/10/30 05:30:42;;;;;;;5.15;0.93;;;12.00;99.90;;;;;;5043947;28;20253;-61
2023/10/30 05:33:10;;;;;;;5.38;1.25;;;12.00;99.90;;;;;;5049494;28;20214;-61
2023/10/30 05:35:38;;;;;;;4.65;0.90;;;11.90;99.90;;;;;;5042569;28;20255;-61
2023/10/30 05:38:07;;;;;;;4.88;1.02;;;11.90;99.90;;;;;;5052018;28;20300;-61
2023/10/30 05:40:35;;;;;;;6.65;1.00;;;11.90;99.90;;;;;;5050507;28;20260;-61
2023/10/30 05:43:03;;;;;;;4.80;0.77;;;11.90;99.90;;;;;;5051567;28;20205;-61
2023/10/30 05:45:31;;;;;;;1.85;0.80;;;11.90;99.90;;;;;;5049563;28;20646;-61
2023/10/30 05:47:59;;;;;;;1.90;0.65;;;11.90;99.90;;;;;;5051748;28;20263;-61
2023/10/30 05:50:27;;;;;;;3.83;1.10;;;11.90;99.90;;;;;;5050400;28;20233;-61
2023/10/30 05:52:55;;;;;;;5.75;0.80;;;11.90;99.90;;;;;;5050727;28;20851;-61
2023/10/30 05:55:24;;;;;;;9.13;0.93;;;11.90;99.90;;;;;;5050743;28;20241;-61
2023/10/30 05:57:52;;;;;;;3.08;0.77;;;11.90;99.90;;;;;;5048754;28;20297;-62
2023/10/30 06:00:21;;;;;;;3.97;0.80;;;11.90;99.90;;;;;;5049472;28;20234;-62
2023/10/30 06:02:49;;;;;;;6.53;1.25;;;11.90;99.90;;;;;;5049973;28;20209;-61
2023/10/30 06:05:18;;;;;;;6.18;0.70;;;11.90;99.90;;;;;;5047352;28;20654;-60
2023/10/30 06:07:46;;;;;;;5.03;1.27;;;11.90;99.90;;;;;;5050678;28;20197;-61
2023/10/30 06:10:16;;;;;;;1.55;0.60;;;11.90;99.90;;;;;;5036333;28;20935;-61
2023/10/30 06:12:47;;;;;;;7.00;1.15;;;11.90;99.90;;;;;;5047590;28;20198;-61
2023/10/30 06:15:15;;;;;;;6.57;1.38;;;11.90;99.90;;;;;;5045224;28;20213;-61
2023/10/30 06:17:43;;;;;;;5.18;1.80;;;11.80;99.90;;;;;;5049121;28;20205;-61
2023/10/30 06:20:12;;;;;;;7.35;1.50;;;11.80;99.90;;;;;;5046996;28;20283;-61
2023/10/30 06:22:39;;;;;;;5.80;1.23;;;11.80;99.90;;;;;;5048858;28;20752;-61
2023/10/30 06:25:09;;;;;;;2.58;1.40;;;11.80;99.90;;;;;;5050276;28;20735;-59
2023/10/30 06:27:37;;;;;;;2.13;1.40;;;12.20;99.90;;;;;;5051292;28;20285;-61
2023/10/30 06:30:08;;;;;;;4.05;1.30;;;12.90;99.90;;;;;;5060737;22;20734;-60
2023/10/30 06:32:36;;;;;;;2.63;1.10;;;12.90;99.90;;;;;;5051582;28;20268;-60
2023/10/30 06:35:04;;;;;;;4.78;1.60;;;12.80;99.90;;;;;;5051369;28;20691;-60
2023/10/30 06:37:32;;;;;;;2.33;1.30;;;12.70;99.90;;;;;;5051435;28;20292;-60
2023/10/30 06:40:00;;;;;;;4.65;1.58;;;12.50;99.90;;;;;;5051194;28;20605;-58
2023/10/30 06:42:28;;;;;;;2.13;1.15;;;12.40;99.90;;;;;;5051568;28;20267;-60
2023/10/30 06:44:56;;;;;;;5.63;1.30;;;12.30;99.90;;;;;;5051080;28;20259;-60
2023/10/30 06:47:27;;;;;;;2.88;0.90;;;12.20;99.90;;;;;;5051386;28;20237;-58
2023/10/30 06:49:54;;;;;;;5.55;1.55;;;12.20;99.90;;;;;;5051130;28;20301;-59
2023/10/30 06:52:22;;;;;;;1.10;1.00;;;12.10;99.90;;;;;;5050459;28;20301;-60
2023/10/30 06:54:50;;;;;;;2.22;1.10;;;12.10;99.90;;;;;;5050702;28;20662;-60
2023/10/30 06:57:18;;;;;;;5.30;1.23;;;12.10;99.90;;;;;;5050988;28;20683;-60
2023/10/30 06:59:46;;;;;;;2.30;1.33;;;12.10;99.90;;;;;;5051350;28;20236;-59
2023/10/30 07:02:14;;;;;;;2.97;1.00;;;12.10;99.90;;;;;;5051198;28;20289;-59
2023/10/30 07:04:43;;;;;;;3.42;1.10;;;12.10;99.90;;;;;;5050978;28;20206;-59
2023/10/30 07:07:11;;;;;;;2.67;1.10;;;12.10;99.90;;;;;;5051287;28;20300;-59
2023/10/30 07:09:39;;;;;;;3.67;1.38;;;12.10;99.90;;;;;;5053763;28;20666;-59
2023/10/30 07:12:08;;;;;;;1.30;1.00;;;12.10;99.90;;;;;;5054892;28;20216;-59
2023/10/30 07:14:37;;;;;;;2.05;1.50;;;12.10;99.90;;;;;;5054799;28;20722;-60
2023/10/30 07:17:05;;;;;;;3.67;1.20;;;12.10;99.90;;;;;;5054427;28;20639;-56
2023/10/30 07:19:33;;;;;;;2.88;0.90;;;12.10;99.90;;;;;;5054081;28;20237;-56
2023/10/30 07:22:04;;;;;;;1.50;1.05;;;12.20;99.90;;;;;;5054640;28;20289;-56
2023/10/30 07:24:32;;;;;;;2.95;0.93;;;12.60;99.90;;;;;;5054417;28;20694;-56
2023/10/30 07:27:00;;;;;;;3.33;1.10;;;12.80;99.90;;;;;;5053429;28;20202;-57
2023/10/30 07:29:28;;;;;;;0.98;0.70;;;13.10;99.90;;;;;;5053932;28;20229;-57
2023/10/30 07:31:56;;;;;;;3.78;0.75;;;13.30;99.90;;;;;;5054440;28;20206;-59
2023/10/30 07:34:24;;;;;;;3.22;0.90;;;13.50;99.90;;;;;;5038898;28;20631;-59
2023/10/30 07:36:52;;;;;;;1.20;0.80;;;13.50;99.90;;;;;;5054328;28;20202;-59
2023/10/30 07:39:21;;;;;;;1.20;0.95;;;13.50;99.90;;;;;;5053784;28;20237;-59
2023/10/30 07:41:49;;;;;;;1.35;0.85;;;13.30;99.90;;;;;;5052558;28;20205;-58
2023/10/30 07:44:17;;;;;;;1.98;0.85;;;13.10;99.90;;;;;;5052069;28;20241;-58
2023/10/30 07:46:45;;;;;;;2.08;0.88;;;13.00;99.90;;;;;;5053156;28;20606;-58
2023/10/30 07:49:13;;;;;;;4.78;1.00;;;12.90;99.90;;;;;;5053675;28;20206;-57
2023/10/30 07:51:41;;;;;;;1.30;0.77;;;12.70;99.90;;;;;;5053996;28;20596;-60
2023/10/30 07:54:09;;;;;;;3.45;1.08;;;12.70;99.90;;;;;;5054132;28;20300;-59
2023/10/30 07:56:38;;;;;;;3.70;0.73;;;12.60;99.90;;;;;;5053604;28;20206;-59
2023/10/30 07:59:06;;;;;;;4.78;1.38;;;12.60;99.90;;;;;;5053293;28;20305;-59
2023/10/30 08:01:34;;;;;;;1.70;1.15;;;12.60;99.90;;;;;;5053514;28;20226;-59
2023/10/30 08:04:03;;;;;;;5.35;1.30;;;12.60;99.90;;;;;;5053931;28;20212;-60
2023/10/30 08:06:31;;;;;;;1.67;1.05;;;12.50;99.90;;;;;;5053400;28;20222;-59
2023/10/30 08:08:59;;;;;;;6.13;1.42;;;12.50;99.90;;;;;;5053782;28;20275;-59
2023/10/30 08:11:27;;;;;;;7.15;1.83;;;12.50;99.90;;;;;;5053250;28;20621;-60
2023/10/30 08:13:57;;;;;;;3.08;1.30;;;12.50;99.90;;;;;;5042874;28;20755;-60
2023/10/30 08:16:25;;;;;;;3.58;1.48;;;12.50;99.90;;;;;;5033177;28;20206;-59
2023/10/30 08:18:53;;;;;;;3.22;1.50;;;12.50;99.90;;;;;;5033674;28;20207;-59
2023/10/30 08:21:21;;;;;;;2.45;1.35;;;12.50;99.90;;;;;;5032414;28;20227;-59
2023/10/30 08:23:49;;;;;;;2.55;1.75;;;12.50;99.90;;;;;;5028259;28;20248;-59
2023/10/30 08:26:16;;;;;;;3.15;1.70;;;12.60;99.90;;;;;;5033045;28;20211;-58
2023/10/30 08:28:45;;;;;;;4.43;1.63;;;12.60;99.90;;;;;;5031683;28;20206;-56
2023/10/30 08:31:16;;;;;;;3.05;1.30;;;12.60;99.90;;;;;;5034548;28;20238;-60
2023/10/30 08:33:44;;;;;;;1.35;1.00;;;12.60;99.90;;;;;;5032703;28;20202;-59
2023/10/30 08:36:12;;;;;;;6.53;1.52;;;12.60;99.90;;;;;;5032687;28;20206;-57
2023/10/30 08:38:40;;;;;;;2.90;1.40;;;12.60;99.90;;;;;;5032679;28;20246;-58
2023/10/30 08:41:15;;;;;;;2.53;1.33;;;12.60;99.90;;;;;;5039162;28;20303;-59
2023/10/30 08:43:43;;;;;;;4.10;1.23;;;12.60;99.90;;;;;;5040984;28;20244;-59
2023/10/30 08:46:17;;;;;;;3.30;1.23;;;12.60;99.90;;;;;;5032522;28;20210;-58
2023/10/30 08:48:46;;;;;;;2.63;1.25;;;12.60;99.90;;;;;;5033359;28;20559;-59
2023/10/30 08:51:14;;;;;;;4.32;1.33;;;12.60;99.90;;;;;;5032566;28;20716;-59
2023/10/30 08:53:42;;;;;;;5.00;1.10;;;12.70;99.90;;;;;;5032986;28;20305;-59
2023/10/30 08:56:10;;;;;;;2.15;0.95;;;12.70;99.90;;;;;;5032431;28;20253;-59
2023/10/30 08:58:38;;;;;;;3.25;1.05;;;12.70;99.90;;;;;;5032634;28;20211;-58
2023/10/30 09:01:06;;;;;;;1.75;1.02;;;12.70;99.90;;;;;;5031812;28;20321;-58
2023/10/30 09:03:35;;;;;;;2.58;1.05;;;12.70;99.90;;;;;;5032844;28;20269;-59
2023/10/30 09:06:03;;;;;;;3.90;1.35;;;12.70;99.90;;;;;;5032392;28;20698;-58
2023/10/30 09:08:32;;;;;;;2.72;0.95;;;12.70;99.90;;;;;;5032200;28;20202;-57
2023/10/30 09:11:00;;;;;;;2.25;0.60;;;12.80;99.90;;;;;;5045354;28;20271;-58
2023/10/30 09:13:27;;;;;;;3.10;0.70;;;12.80;99.90;;;;;;5052737;28;20267;-57
2023/10/30 09:15:56;;;;;;;2.10;0.52;;;12.80;99.90;;;;;;5032330;28;20211;-59
2023/10/30 09:18:24;;;;;;;3.53;0.80;;;12.80;99.90;;;;;;5032529;28;20211;-58
2023/10/30 09:20:54;;;;;;;1.33;0.63;;;12.90;99.90;;;;;;5024132;28;20229;-59
2023/10/30 09:23:22;;;;;;;2.58;0.70;;;12.90;99.90;;;;;;5031732;28;20245;-58
2023/10/30 09:25:50;;;;;;;5.93;0.82;;;13.00;99.90;;;;;;5023919;28;20289;-59
2023/10/30 09:28:17;;;;;;;1.48;0.77;;;13.00;99.90;;;;;;5032195;28;20210;-58
2023/10/30 09:30:45;;;;;;;2.47;1.15;;;13.10;99.90;;;;;;5031486;28;20257;-59
2023/10/30 09:33:13;;;;;;;1.35;0.82;;;13.10;99.90;;;;;;5030257;28;20234;-59
2023/10/30 09:35:42;;;;;;;1.38;0.82;;;13.10;99.90;;;;;;5031402;28;20284;-59
2023/10/30 09:38:11;;;;;;;5.10;1.10;;;13.10;99.90;;;;;;5031629;28;20245;-58
2023/10/30 09:40:39;;;;;;;2.45;1.08;;;13.20;99.90;;;;;;5030389;28;20269;-58
2023/10/30 09:43:09;;;;;;;2.67;0.93;;;13.20;99.90;;;;;;5029984;28;20300;-58
2023/10/30 09:45:41;;;;;;;2.13;0.85;;;13.20;99.90;;;;;;5029539;28;20257;-59
2023/10/30 09:48:09;;;;;;;4.50;1.13;;;13.20;99.90;;;;;;5031324;28;20209;-58
2023/10/30 09:50:37;;;;;;;1.73;0.85;;;13.30;99.90;;;;;;5030997;28;20348;-58
2023/10/30 09:53:05;;;;;;;2.08;0.70;;;13.30;99.90;;;;;;5031372;28;20242;-58
2023/10/30 09:55:34;;;;;;;1.02;0.80;;;13.30;99.90;;;;;;5030636;28;20293;-59
2023/10/30 09:58:02;;;;;;;1.38;0.60;;;13.40;99.90;;;;;;5045112;28;20229;-59
2023/10/30 10:00:31;;;;;;;2.25;0.68;;;13.40;99.90;;;;;;5051268;28;20732;-58
2023/10/30 10:02:59;;;;;;;4.25;0.80;;;13.60;99.90;;;;;;5051664;28;20617;-59
2023/10/30 10:05:27;;;;;;;2.25;1.05;;;13.70;99.90;;;;;;5051073;28;20212;-56
2023/10/30 10:07:55;;;;;;;0.77;0.77;;;13.80;99.90;;;;;;5051629;28;20726;-59
2023/10/30 10:10:24;;;;;;;1.20;0.70;;;13.90;99.90;;;;;;5051342;28;20652;-58
2023/10/30 10:12:53;;;;;;;1.52;0.70;;;14.00;99.90;;;;;;5052000;28;20236;-59
2023/10/30 10:15:21;;;;;;;1.50;0.63;;;14.10;99.90;;;;;;5035549;28;20222;-59
2023/10/30 10:17:49;;;;;;;3.00;0.60;;;14.10;99.90;;;;;;5031479;28;20256;-59
2023/10/30 10:20:21;;;;;;;4.03;0.70;;;14.10;99.90;;;;;;5030944;28;20301;-59
2023/10/30 10:22:50;;;;;;;0.95;0.60;;;14.10;99.90;;;;;;5030533;28;20313;-59
2023/10/30 10:25:18;;;;;;;0.77;0.77;;;14.10;99.90;;;;;;5030530;28;20268;-59
2023/10/30 10:27:48;;;;;;;2.03;0.63;;;14.00;99.90;;;;;;5033577;28;20207;-59
2023/10/30 10:30:18;;;;;;;1.58;0.73;;;14.10;99.90;;;;;;5050837;28;20237;-59
2023/10/30 10:32:46;;;;;;;1.55;0.60;;;14.10;99.90;;;;;;5051059;28;20209;-59
2023/10/30 10:35:14;;;;;;;0.70;0.70;;;14.10;99.90;;;;;;5050811;28;20210;-59
2023/10/30 10:37:43;;;;;;;2.10;0.93;;;14.10;99.90;;;;;;5051281;28;20263;-59
2023/10/30 10:40:15;;;;;;;2.47;0.93;;;14.10;99.90;;;;;;5050933;28;20320;-58
2023/10/30 10:42:43;;;;;;;1.05;0.52;;;14.00;99.90;;;;;;5051033;28;20260;-60
2023/10/30 10:45:11;;;;;;;0.82;0.52;;;14.00;99.90;;;;;;5054749;28;20206;-59
2023/10/30 10:47:40;;;;;;;3.83;0.60;;;14.00;99.90;;;;;;5055148;28;20287;-59
2023/10/30 10:50:09;;;;;;;2.40;0.63;;;14.10;99.90;;;;;;5055212;28;20222;-59
2023/10/30 10:52:37;;;;;;;3.50;0.65;;;14.10;99.90;;;;;;5055038;28;20244;-59
2023/10/30 10:55:07;;;;;;;3.45;0.82;;;14.10;99.90;;;;;;5054638;28;20685;-59
2023/10/30 10:57:39;;;;;;;0.90;0.80;;;14.10;99.90;;;;;;5054949;28;20656;-59
2023/10/30 11:00:09;;;;;;;1.27;0.60;;;14.20;99.90;;;;;;5054652;28;20225;-58
2023/10/30 11:02:38;;;;;;;0.60;0.60;;;14.20;99.90;;;;;;5054915;28;20225;-59
2023/10/30 11:05:07;;;;;;;2.30;0.70;;;14.20;99.90;;;;;;5054540;28;20213;-59
2023/10/30 11:07:37;;;;;;;0.50;0.50;;;14.20;99.90;;;;;;5054796;28;20202;-59
2023/10/30 11:10:09;;;;;;;2.13;0.40;;;14.20;99.90;;;;;;5047472;28;20230;-58
2023/10/30 11:12:48;;;;;;;2.85;0.40;;;14.20;99.90;;;;;;5031049;28;20226;-59
2023/10/30 11:15:20;;;;;;;1.42;0.60;;;14.20;99.90;;;;;;5034417;28;20352;-57
2023/10/30 11:18:13;;;;;;;2.38;0.50;;;14.10;99.90;;;;;;5034680;28;20206;-58
2023/10/30 11:20:43;;;;;;;0.57;0.50;;;14.10;99.90;;;;;;5035759;28;20265;-58
2023/10/30 11:23:12;;;;;;;0.63;0.30;;;14.20;99.90;;;;;;5034948;28;20222;-57
2023/10/30 11:25:53;;;;;;;2.17;0.40;;;14.20;99.90;;;;;;5034180;28;20234;-58
2023/10/30 11:28:23;;;;;;;2.53;0.47;;;14.30;99.90;;;;;;5031922;28;20249;-59
2023/10/30 11:30:51;;;;;;;0.98;0.47;;;14.30;99.90;;;;;;5033846;28;20270;-59
2023/10/30 11:33:20;;;;;;;1.35;0.50;;;14.40;99.90;;;;;;5034351;28;20206;-59
2023/10/30 11:36:22;;;;;;;0.95;0.40;;;14.40;99.90;;;;;;5034094;28;20264;-59
2023/10/30 11:39:10;;;;;;;0.30;0.30;;;14.50;99.90;;;;;;5034345;28;20212;-58
2023/10/30 11:41:39;;;;;;;3.83;0.50;;;14.60;99.90;;;;;;5033744;28;20226;-58
2023/10/30 11:44:11;;;;;;;1.20;0.52;;;14.70;99.90;;;;;;5034528;28;20297;-58
2023/10/30 11:46:39;;;;;;;1.65;0.40;;;14.70;99.90;;;;;;5033632;28;20244;-58
2023/10/30 11:49:08;;;;;;;2.47;2.28;;;14.80;99.90;;;;;;5033863;28;20742;-59
2023/10/30 11:51:37;;;;;;;2.25;2.10;;;15.00;99.90;;;;;;5037770;28;20213;-60
2023/10/30 11:54:05;;;;;;;1.75;1.67;;;15.30;99.90;;;;;;5053570;28;20206;-60
2023/10/30 11:56:33;;;;;;;1.30;1.30;;;15.60;99.90;;;;;;5052450;28;20297;-57
2023/10/30 11:59:01;;;;;;;1.23;0.80;;;15.90;99.90;;;;;;5053984;28;20274;-58
2023/10/30 12:01:30;;;;;;;2.05;0.93;;;16.20;99.90;;;;;;5053519;28;20673;-60
2023/10/30 12:03:58;;;;;;;1.95;0.60;;;16.40;99.90;;;;;;5053802;28;20289;-59
2023/10/30 12:06:26;;;;;;;1.15;0.40;;;16.50;99.90;;;;;;5053260;28;20256;-59
2023/10/30 12:08:55;;;;;;;1.85;0.38;;;16.40;99.90;;;;;;5045701;28;20211;-59
2023/10/30 12:11:23;;;;;;;0.50;0.50;;;16.20;99.90;;;;;;5033542;28;20261;-58
2023/10/30 12:13:51;;;;;;;0.70;0.40;;;16.00;99.90;;;;;;5033748;28;20269;-60
2023/10/30 12:16:19;;;;;;;2.05;0.47;;;15.90;99.90;;;;;;5033311;28;20253;-59
2023/10/30 12:18:48;;;;;;;0.65;0.30;;;15.80;99.90;;;;;;5033404;28;20202;-59
2023/10/30 12:21:18;;;;;;;0.52;0.40;;;15.80;99.90;;;;;;5032834;28;20261;-60
2023/10/30 12:23:48;;;;;;;2.92;0.30;;;15.70;99.90;;;;;;5032793;28;20230;-58
2023/10/30 12:26:17;;;;;;;3.15;0.43;;;15.60;99.90;;;;;;5032904;28;20671;-60
2023/10/30 12:28:45;;;;;;;2.40;0.40;;;15.50;99.90;;;;;;5033260;28;20298;-60
2023/10/30 12:31:22;;;;;;;3.92;0.30;;;15.50;99.90;;;;;;5055512;22;20341;-72
2023/10/30 12:34:09;;;;;;;2.00;0.50;;;15.40;99.90;;;;;;5051169;28;20671;-72
2023/10/30 12:36:37;;;;;;;1.33;0.40;;;15.50;99.90;;;;;;5052849;28;20206;-72
2023/10/30 12:39:15;;;;;;;0.40;0.35;;;15.60;99.90;;;;;;5052751;28;20694;-72
2023/10/30 12:41:45;;;;;;;2.38;0.60;;;15.80;99.90;;;;;;5052400;28;20313;-72
2023/10/30 12:44:17;;;;;;;3.50;0.82;;;15.90;99.90;;;;;;5052641;28;20205;-72
2023/10/30 12:46:45;;;;;;;2.72;0.60;;;15.80;99.90;;;;;;5052546;28;20206;-72
2023/10/30 12:49:13;;;;;;;1.92;0.50;;;15.60;99.90;;;;;;5053093;28;20217;-72
2023/10/30 12:51:41;;;;;;;1.55;0.43;;;15.50;99.90;;;;;;5052740;28;20266;-72
2023/10/30 12:54:09;;;;;;;1.88;0.80;;;15.40;99.90;;;;;;5053016;28;20209;-72
2023/10/30 12:56:37;;;;;;;2.28;0.52;;;15.40;99.90;;;;;;5052272;28;20209;-72